Terminal Aerodrome Forecast
Issued by NWS

Home | Current Version | Previous Version | Graphics & Text | Print | Product List | Glossary On
Versions: 1 2 3 4 5 6 7 8 9 10 11 12 13 14 15 16 17 18 19
000
FTUS43 KIWX 040543
TAFSBN
TAF
KSBN 040543Z 0406/0506 VRB03KT P6SM OVC025
     FM041800 15007KT 2SM -SN BR OVC015
     FM042000 15008KT 1/2SM -SN FG OVC005
     FM050100 21006KT 3SM -SN BR OVC009
     FM050400 24008KT P6SM OVC015=

USA.gov is the U.S. government's official web portal to all federal, state and local government web resources and services.